Time;durP1;ratioP1;P1;durP2;ratioP2;P2;SDS_P1;SDS_P2;PMS_P1;PMS_P2;Temp;Humidity;BMP_temperature;BMP_pressure;BME280_temperature;BME280_humidity;BME280_pressure;Samples;Min_cycle;Max_cycle;Signal;HPM_P1;HPM_P2
2024/01/30 00:00:58;;;;;;;16.73;13.52;;;;;;;1.55;68.95;100908.22;5127614;28;20040;-70
2024/01/30 00:03:26;;;;;;;15.05;12.40;;;;;;;2.07;69.38;101002.69;5127897;28;20035;-70
2024/01/30 00:05:53;;;;;;;16.55;13.20;;;;;;;2.11;69.05;101002.69;5126016;28;20043;-69
2024/01/30 00:08:19;;;;;;;16.80;13.07;;;;;;;2.07;69.39;100997.44;5127751;28;20055;-70
2024/01/30 00:10:46;;;;;;;17.15;11.52;;;;;;;2.05;69.58;100996.56;5127762;28;20341;-69
2024/01/30 00:13:13;;;;;;;17.88;12.48;;;;;;;2.05;69.35;100988.72;5127710;28;20039;-69
2024/01/30 00:15:40;;;;;;;18.17;13.77;;;;;;;2.10;69.12;100997.47;5128238;28;20054;-69
2024/01/30 00:18:07;;;;;;;16.73;12.80;;;;;;;2.07;69.33;100986.97;5127950;28;20044;-69
2024/01/30 00:20:35;;;;;;;16.60;12.15;;;;;;;2.05;69.08;100989.59;5127391;28;20054;-69
2024/01/30 00:23:02;;;;;;;17.83;13.23;;;;;;;2.01;69.42;100987.81;5127797;28;20051;-69
2024/01/30 00:25:29;;;;;;;16.10;12.73;;;;;;;2.06;69.13;100993.06;5126685;28;20122;-69
2024/01/30 00:27:55;;;;;;;16.30;12.73;;;;;;;1.96;69.55;100994.78;5127500;28;20065;-69
2024/01/30 00:30:22;;;;;;;17.55;13.00;;;;;;;2.01;69.38;100993.06;5127418;28;20059;-69
2024/01/30 00:32:49;;;;;;;17.30;12.05;;;;;;;1.87;70.16;100998.19;5127684;28;20039;-69
2024/01/30 00:35:16;;;;;;;17.98;13.45;;;;;;;0.50;69.77;100764.75;5127593;28;20073;-69
2024/01/30 00:37:44;;;;;;;17.33;13.23;;;;;;;1.75;70.45;101008.59;5126748;28;20043;-69
2024/01/30 00:40:15;;;;;;;18.80;13.52;;;;;;;1.79;70.54;101002.50;5127499;28;20055;-69
2024/01/30 00:42:42;;;;;;;16.33;12.68;;;;;;;1.84;70.22;101003.41;5127349;28;20051;-70
2024/01/30 00:45:13;;;;;;;20.27;13.98;;;;;;;1.81;70.16;101005.13;5127724;28;20062;-69
2024/01/30 00:47:39;;;;;;;17.55;14.25;;;;;;;1.73;70.73;101001.59;5127327;28;20039;-69
2024/01/30 00:50:07;;;;;;;18.35;13.52;;;;;;;1.75;70.30;101005.09;5127298;28;20040;-69
2024/01/30 00:52:34;;;;;;;17.88;12.40;;;;;;;1.82;70.26;101005.13;5127254;28;20047;-69
2024/01/30 00:55:02;;;;;;;17.38;13.90;;;;;;;1.58;70.25;100968.34;5127192;28;20044;-69
2024/01/30 00:57:29;;;;;;;16.33;13.48;;;;;;;1.78;70.29;101002.50;5126899;28;20046;-70
2024/01/30 00:59:55;;;;;;;17.80;13.57;;;;;;;1.69;70.76;100994.59;5126273;28;20085;-70
2024/01/30 01:02:22;;;;;;;18.88;12.10;;;;;;;1.75;70.54;100994.63;5127046;28;20035;-70
2024/01/30 01:04:49;;;;;;;15.07;12.27;;;;;;;1.72;70.54;100984.16;5127044;28;20089;-69
2024/01/30 01:07:16;;;;;;;16.65;12.85;;;;;;;1.71;70.72;100982.41;5126624;28;20051;-70
2024/01/30 01:09:43;;;;;;;17.65;13.48;;;;;;;1.71;70.62;100983.28;5126963;28;20043;-70
2024/01/30 01:12:11;;;;;;;16.65;13.38;;;;;;;1.68;70.69;100980.66;5126934;28;20096;-69
2024/01/30 01:14:37;;;;;;;17.92;12.25;;;;;;;1.62;71.12;100980.59;5126957;28;20051;-70
2024/01/30 01:17:04;;;;;;;16.40;12.52;;;;;;;1.57;71.38;100985.78;5126564;28;20047;-70
2024/01/30 01:19:31;;;;;;;17.27;13.20;;;;;;;1.54;71.36;100990.09;5126785;28;20043;-70
2024/01/30 01:21:57;;;;;;;14.63;12.88;;;;;;;1.53;71.44;100985.72;5126754;28;20048;-70
2024/01/30 01:24:24;;;;;;;16.60;13.02;;;;;;;1.42;71.94;100984.78;5126444;28;20043;-70
2024/01/30 01:26:50;;;;;;;18.60;12.80;;;;;;;1.47;71.73;100978.72;5125836;28;20039;-69
2024/01/30 01:29:18;;;;;;;17.45;14.00;;;;;;;1.43;72.12;100979.56;5126938;28;20047;-69
2024/01/30 01:31:46;;;;;;;19.70;14.23;;;;;;;1.41;72.14;100970.84;5126631;28;20036;-69
2024/01/30 01:34:13;;;;;;;19.00;13.38;;;;;;;1.22;72.18;100935.00;5126581;28;20280;-70
2024/01/30 01:36:40;;;;;;;17.13;12.85;;;;;;;-0.04;72.21;100721.72;5126576;28;20211;-70
2024/01/30 01:39:08;;;;;;;15.90;12.60;;;;;;;1.37;72.40;100976.03;5125391;28;20270;-69
2024/01/30 01:41:34;;;;;;;18.92;12.90;;;;;;;1.34;72.57;100960.34;5125279;28;20048;-69
2024/01/30 01:44:01;;;;;;;15.00;12.90;;;;;;;0.53;72.23;100822.19;5126469;28;20051;-69
2024/01/30 01:46:33;;;;;;;15.65;12.75;;;;;;;1.35;72.48;100968.19;5126710;28;20047;-69
2024/01/30 01:49:02;;;;;;;15.60;13.07;;;;;;;1.36;72.51;100964.72;5126681;28;20092;-70
2024/01/30 01:51:31;;;;;;;15.90;12.40;;;;;;;1.33;72.63;100962.06;5126400;28;20051;-70
2024/01/30 01:54:01;;;;;;;18.02;12.85;;;;;;;0.89;72.21;100884.25;5126027;28;20046;-70
2024/01/30 01:56:28;;;;;;;20.02;14.27;;;;;;;0.75;72.05;100875.44;5125998;28;20044;-70
2024/01/30 01:58:56;;;;;;;20.38;13.85;;;;;;;1.42;71.66;100962.13;5125169;28;20092;-69
2024/01/30 02:01:25;;;;;;;16.05;12.18;;;;;;;1.40;71.84;100958.66;5125130;28;20039;-69
2024/01/30 02:03:53;;;;;;;18.38;13.15;;;;;;;1.41;72.07;100959.50;5126411;28;20044;-70
2024/01/30 02:06:21;;;;;;;15.98;12.77;;;;;;;1.44;71.73;100962.16;5126517;28;20088;-70
2024/01/30 02:08:47;;;;;;;17.25;12.38;;;;;;;1.33;72.48;100961.19;5124912;28;20055;-70
2024/01/30 02:11:16;;;;;;;19.38;13.35;;;;;;;1.36;72.22;100963.84;5125870;28;20089;-69
2024/01/30 02:13:43;;;;;;;17.00;12.38;;;;;;;1.24;72.85;100962.88;5126119;28;20047;-69
2024/01/30 02:16:10;;;;;;;15.73;12.65;;;;;;;1.21;73.19;100959.34;5126163;28;20039;-69
2024/01/30 02:18:41;;;;;;;15.73;13.02;;;;;;;1.25;73.02;100956.78;5126393;28;20044;-69
2024/01/30 02:21:09;;;;;;;16.52;13.20;;;;;;;1.24;73.03;100954.16;5126186;28;20052;-70
2024/01/30 02:23:36;;;;;;;16.92;13.20;;;;;;;1.23;73.14;100947.19;5125964;28;20053;-69
2024/01/30 02:26:03;;;;;;;17.77;12.23;;;;;;;1.28;73.03;100947.22;5126313;28;20059;-69
2024/01/30 02:28:29;;;;;;;15.65;11.88;;;;;;;1.24;73.29;100944.59;5126743;28;20063;-69
2024/01/30 02:30:56;;;;;;;16.27;12.50;;;;;;;1.19;73.57;100954.13;5130048;28;20043;-70
2024/01/30 02:33:22;;;;;;;18.52;12.18;;;;;;;1.19;73.32;100943.69;5129990;28;20039;-70
2024/01/30 02:35:49;;;;;;;17.00;12.40;;;;;;;1.20;73.34;100945.44;5130274;28;20345;-70
2024/01/30 02:38:17;;;;;;;19.35;13.20;;;;;;;1.26;72.97;100949.81;5129925;28;20043;-70
2024/01/30 02:40:44;;;;;;;17.85;12.63;;;;;;;1.26;72.93;100948.09;5129827;28;20043;-71
2024/01/30 02:43:11;;;;;;;15.38;12.68;;;;;;;1.24;72.95;100939.38;5128583;28;20039;-70
2024/01/30 02:45:37;;;;;;;18.35;13.00;;;;;;;1.20;73.03;100944.56;5129520;28;20287;-70
2024/01/30 02:48:05;;;;;;;17.40;13.43;;;;;;;1.08;73.81;100950.53;5129602;28;20100;-70
2024/01/30 02:50:31;;;;;;;16.02;12.63;;;;;;;1.15;73.38;100949.75;5129665;28;20052;-70
2024/01/30 02:52:58;;;;;;;17.88;12.30;;;;;;;1.15;73.32;100943.63;5129684;28;20319;-70
2024/01/30 02:55:26;;;;;;;16.65;12.32;;;;;;;1.19;73.08;100950.63;5129562;28;20104;-70
2024/01/30 02:57:53;;;;;;;16.73;12.52;;;;;;;1.18;72.95;100943.66;5129798;28;20043;-70
2024/01/30 03:00:21;;;;;;;15.98;12.63;;;;;;;1.28;72.45;100949.84;5129161;28;20326;-70
2024/01/30 03:02:47;;;;;;;16.30;11.77;;;;;;;1.18;72.95;100943.66;5129327;28;20039;-70
2024/01/30 03:05:14;;;;;;;15.48;11.98;;;;;;;0.93;74.11;100947.81;5129599;28;20109;-70
2024/01/30 03:07:40;;;;;;;18.08;14.32;;;;;;;1.02;74.06;100936.56;5128178;28;20056;-70
2024/01/30 03:10:08;;;;;;;16.60;12.15;;;;;;;0.79;73.91;100905.91;5129566;28;20054;-69
2024/01/30 03:12:36;;;;;;;15.55;12.38;;;;;;;1.09;73.69;100934.03;5129249;28;20047;-71
2024/01/30 03:15:02;;;;;;;17.52;13.40;;;;;;;1.10;73.47;100933.16;5129202;28;20192;-71
2024/01/30 03:17:29;;;;;;;14.40;11.05;;;;;;;1.07;73.79;100930.53;5129167;28;20067;-71
2024/01/30 03:19:56;;;;;;;17.25;12.90;;;;;;;1.10;73.30;100925.31;5129126;28;20051;-70
2024/01/30 03:22:22;;;;;;;21.10;13.30;;;;;;;1.10;73.40;100927.06;5128565;28;20054;-71
2024/01/30 03:24:49;;;;;;;16.08;11.85;;;;;;;1.02;73.83;100926.13;5128982;28;20276;-71
2024/01/30 03:27:16;;;;;;;17.08;12.75;;;;;;;1.16;72.99;100924.50;5128961;28;20123;-70
2024/01/30 03:29:44;;;;;;;16.10;12.10;;;;;;;0.59;73.17;100837.88;5128906;28;20043;-71
2024/01/30 03:32:10;;;;;;;17.75;13.52;;;;;;;1.09;73.00;100927.91;5128878;28;20043;-70
2024/01/30 03:34:37;;;;;;;20.20;13.43;;;;;;;1.09;73.40;100935.75;5129095;28;20047;-71
2024/01/30 03:37:04;;;;;;;17.20;12.80;;;;;;;1.17;72.67;100931.47;5128502;28;20043;-71
2024/01/30 03:39:31;;;;;;;20.75;12.77;;;;;;;0.48;73.34;100854.31;5128600;28;20054;-70
2024/01/30 03:41:58;;;;;;;18.85;13.60;;;;;;;0.87;74.31;100925.13;5128671;28;20040;-70
2024/01/30 03:44:24;;;;;;;15.15;12.98;;;;;;;0.91;74.02;100920.81;5128333;28;20040;-71
2024/01/30 03:46:53;;;;;;;16.40;12.82;;;;;;;0.95;73.64;100919.97;5128854;28;20106;-71
2024/01/30 03:49:19;;;;;;;19.02;12.30;;;;;;;0.87;73.94;100932.97;5128289;27;20204;-70
2024/01/30 03:51:47;;;;;;;18.73;13.55;;;;;;;0.80;74.09;100932.88;5128482;28;20158;-71
2024/01/30 03:54:14;;;;;;;15.95;12.13;;;;;;;-0.16;74.26;100772.81;5128234;28;20039;-71
2024/01/30 03:56:40;;;;;;;21.58;13.40;;;;;;;0.54;74.49;100898.72;5128417;28;20047;-70
2024/01/30 03:59:07;;;;;;;20.65;12.95;;;;;;;0.04;74.26;100799.97;5128626;28;20165;-70
2024/01/30 04:01:34;;;;;;;16.55;12.90;;;;;;;0.77;74.18;100933.72;5128336;28;20102;-71
2024/01/30 04:04:02;;;;;;;17.40;12.02;;;;;;;0.93;73.24;100934.75;5128212;28;20110;-71
2024/01/30 04:06:28;;;;;;;18.95;12.73;;;;;;;0.90;73.42;100932.97;5128004;28;20040;-71
2024/01/30 04:08:55;;;;;;;17.15;14.07;;;;;;;0.82;73.85;100932.03;5127895;28;20044;-70
2024/01/30 04:11:21;;;;;;;14.35;11.93;;;;;;;0.79;73.97;100934.63;5126979;28;20059;-70
2024/01/30 04:13:49;;;;;;;18.30;13.57;;;;;;;0.89;73.71;100931.25;5128093;28;20062;-70
2024/01/30 04:16:21;;;;;;;18.38;13.93;;;;;;;1.02;72.47;100932.22;5127740;28;20054;-70
2024/01/30 04:18:48;;;;;;;17.90;13.02;;;;;;;0.93;72.96;100929.53;5128211;28;20106;-70
2024/01/30 04:21:16;;;;;;;20.65;12.77;;;;;;;0.90;73.27;100932.97;5127884;28;20039;-70
2024/01/30 04:23:43;;;;;;;17.52;13.45;;;;;;;0.82;73.52;100932.03;5127730;28;20310;-70
2024/01/30 04:26:09;;;;;;;19.38;14.30;;;;;;;0.82;73.61;100932.03;5127539;28;20250;-70
2024/01/30 04:28:36;;;;;;;16.92;13.10;;;;;;;0.77;73.58;100941.56;5128045;28;20039;-71
2024/01/30 04:31:02;;;;;;;18.23;13.43;;;;;;;0.80;73.40;100935.50;5127272;28;20081;-71
2024/01/30 04:33:29;;;;;;;18.80;15.00;;;;;;;0.84;73.32;100940.75;5127373;28;20048;-71
2024/01/30 04:35:56;;;;;;;17.05;13.50;;;;;;;0.83;73.15;100936.41;5127832;28;20100;-71
2024/01/30 04:38:25;;;;;;;18.45;14.82;;;;;;;0.81;73.40;100937.25;5127247;28;20043;-71
2024/01/30 04:40:51;;;;;;;17.95;12.95;;;;;;;0.39;74.15;100906.38;5127835;27;20047;-71
2024/01/30 04:43:18;;;;;;;17.48;13.88;;;;;;;0.64;73.96;100929.25;5127332;28;20043;-70
2024/01/30 04:45:45;;;;;;;17.30;13.38;;;;;;;0.75;73.57;100929.34;5127415;28;20039;-70
2024/01/30 04:48:12;;;;;;;19.38;13.02;;;;;;;0.74;73.60;100936.31;5127325;28;20051;-71
2024/01/30 04:50:38;;;;;;;20.25;13.98;;;;;;;0.62;74.12;100925.75;5127156;28;20051;-71
2024/01/30 04:53:05;;;;;;;16.35;13.55;;;;;;;0.49;74.80;100940.41;5126855;28;20108;-70
2024/01/30 04:55:33;;;;;;;19.67;14.35;;;;;;;0.54;74.50;100937.84;5127180;28;20058;-71
2024/01/30 04:58:00;;;;;;;18.58;14.13;;;;;;;0.41;75.00;100935.97;5127160;28;20043;-71
2024/01/30 05:00:26;;;;;;;21.52;16.30;;;;;;;0.42;75.15;100935.97;5127112;28;20101;-71
2024/01/30 05:02:53;;;;;;;22.85;15.70;;;;;;;-0.64;74.74;100740.16;5127023;28;20039;-71
2024/01/30 05:05:21;;;;;;;20.17;15.23;;;;;;;0.46;74.70;100939.50;5127272;28;20035;-71
2024/01/30 05:07:48;;;;;;;18.55;14.07;;;;;;;0.25;75.77;100941.00;5126665;28;20059;-71
2024/01/30 05:10:15;;;;;;;16.67;14.20;;;;;;;-0.08;76.43;100899.75;5127198;28;20084;-70
2024/01/30 05:12:43;;;;;;;19.13;14.50;;;;;;;0.32;75.60;100946.28;5126623;28;20035;-71
2024/01/30 05:15:10;;;;;;;16.75;13.60;;;;;;;0.42;74.88;100945.53;5126874;28;20097;-71
2024/01/30 05:17:37;;;;;;;17.70;14.25;;;;;;;0.38;75.18;100949.84;5126875;28;20051;-70
2024/01/30 05:20:04;;;;;;;16.67;13.57;;;;;;;0.32;75.15;100938.47;5126478;28;20043;-71
2024/01/30 05:22:31;;;;;;;17.70;13.95;;;;;;;0.37;75.29;100952.44;5125472;28;20181;-70
2024/01/30 05:24:57;;;;;;;16.95;13.13;;;;;;;0.28;75.77;100953.19;5126628;28;20063;-70
2024/01/30 05:27:24;;;;;;;18.15;14.35;;;;;;;0.12;76.39;100946.94;5126581;28;20050;-71
2024/01/30 05:29:52;;;;;;;18.73;14.82;;;;;;;0.11;76.65;100946.91;5125744;28;20054;-71
2024/01/30 05:32:19;;;;;;;17.02;13.07;;;;;;;0.24;75.69;100947.06;5126527;28;20051;-70
2024/01/30 05:34:45;;;;;;;18.08;12.70;;;;;;;0.28;75.58;100946.25;5126530;28;20168;-70
2024/01/30 05:37:14;;;;;;;21.08;13.93;;;;;;;0.26;75.64;100945.34;5125570;28;20043;-70
2024/01/30 05:39:41;;;;;;;20.67;14.15;;;;;;;0.14;76.28;100953.03;5126213;28;20361;-71
2024/01/30 05:42:07;;;;;;;18.65;14.57;;;;;;;0.34;75.06;100949.78;5126378;28;20315;-71
2024/01/30 05:44:34;;;;;;;15.95;12.63;;;;;;;0.38;75.17;100946.34;5126283;28;20054;-71
2024/01/30 05:47:02;;;;;;;22.15;14.80;;;;;;;0.23;75.89;100952.28;5126584;28;20059;-71
2024/01/30 05:49:29;;;;;;;18.58;13.77;;;;;;;0.13;76.66;100950.41;5126040;28;20035;-70
2024/01/30 05:51:55;;;;;;;18.67;14.13;;;;;;;0.23;75.94;100940.09;5126562;28;20337;-70
2024/01/30 05:54:22;;;;;;;16.40;12.93;;;;;;;0.22;75.98;100950.53;5126329;28;20063;-70
2024/01/30 05:56:48;;;;;;;19.55;13.52;;;;;;;0.24;75.94;100948.81;5126007;28;20040;-70
2024/01/30 05:59:15;;;;;;;19.35;14.73;;;;;;;0.22;75.92;100945.31;5125104;28;20338;-70
2024/01/30 06:01:46;;;;;;;17.70;12.98;;;;;;;0.20;76.01;100952.22;5125948;28;20055;-71
2024/01/30 06:04:15;;;;;;;19.55;14.15;;;;;;;0.20;76.12;100949.63;5128203;28;20054;-71
2024/01/30 06:06:41;;;;;;;20.38;15.15;;;;;;;0.33;75.45;100958.47;5129076;28;20081;-71
2024/01/30 06:09:08;;;;;;;19.08;14.18;;;;;;;0.38;74.74;100951.56;5130218;28;20051;-70
2024/01/30 06:11:35;;;;;;;18.40;14.20;;;;;;;0.34;75.33;100958.50;5130186;28;20043;-70
2024/01/30 06:14:02;;;;;;;17.35;14.32;;;;;;;0.34;74.77;100961.09;5130386;28;20063;-70
2024/01/30 06:16:29;;;;;;;18.42;14.45;;;;;;;0.46;74.32;100968.19;5129995;28;20080;-71
2024/01/30 06:18:56;;;;;;;18.70;14.07;;;;;;;0.52;76.35;100969.13;5129967;28;20040;-71
2024/01/30 06:21:24;;;;;;;20.27;14.20;;;;;;;0.55;76.15;100970.91;5130177;28;20081;-70
2024/01/30 06:23:51;;;;;;;20.02;14.25;;;;;;;0.54;76.79;100967.41;5129998;28;20059;-70
2024/01/30 06:26:18;;;;;;;19.05;14.70;;;;;;;0.33;75.36;100924.56;5130476;28;20082;-71
2024/01/30 06:28:45;;;;;;;19.17;15.23;;;;;;;0.49;75.56;100966.50;5130076;28;20044;-71
2024/01/30 06:31:11;;;;;;;19.77;14.73;;;;;;;0.38;75.79;100969.84;5129962;28;20051;-70
2024/01/30 06:33:38;;;;;;;22.58;14.43;;;;;;;0.42;75.47;100967.28;5129922;28;20050;-71
2024/01/30 06:36:05;;;;;;;22.30;14.93;;;;;;;0.51;74.93;100975.22;5128523;28;20047;-70
2024/01/30 06:38:33;;;;;;;21.67;14.65;;;;;;;0.57;74.37;100966.56;5129741;28;20052;-70
2024/01/30 06:40:59;;;;;;;19.13;15.20;;;;;;;0.56;74.34;100972.66;5129796;28;20043;-71
2024/01/30 06:43:26;;;;;;;20.23;13.50;;;;;;;0.43;74.63;100973.38;5129599;28;20039;-71
2024/01/30 06:45:53;;;;;;;16.20;13.15;;;;;;;0.42;74.77;100974.22;5129686;28;20144;-71
2024/01/30 06:48:19;;;;;;;19.67;14.13;;;;;;;0.41;75.18;100982.91;5128616;28;20111;-71
2024/01/30 06:50:47;;;;;;;21.63;15.32;;;;;;;0.48;74.40;100979.50;5129658;28;20039;-70
2024/01/30 06:53:14;;;;;;;20.42;15.65;;;;;;;0.49;74.48;100973.44;5128868;28;20044;-70
2024/01/30 06:55:42;;;;;;;18.38;14.48;;;;;;;0.52;74.50;100974.34;5129225;28;20051;-70
2024/01/30 06:58:09;;;;;;;21.45;14.93;;;;;;;0.50;74.45;100980.41;5128891;28;20200;-71
2024/01/30 07:00:36;;;;;;;21.15;15.05;;;;;;;0.21;74.82;100949.66;5129452;28;20051;-70
2024/01/30 07:03:02;;;;;;;20.20;14.13;;;;;;;0.48;74.44;100993.44;5129402;28;20069;-70
2024/01/30 07:05:29;;;;;;;19.92;14.48;;;;;;;0.50;74.22;100986.50;5129365;28;20115;-70
2024/01/30 07:07:56;;;;;;;20.60;15.27;;;;;;;0.53;74.27;100993.50;5128600;28;20059;-71
2024/01/30 07:10:22;;;;;;;17.38;13.65;;;;;;;0.50;74.61;100996.94;5129176;28;20043;-70
2024/01/30 07:12:50;;;;;;;20.20;14.50;;;;;;;0.38;75.28;100996.78;5128851;28;20044;-70
2024/01/30 07:15:20;;;;;;;23.15;13.43;;;;;;;0.47;74.71;100991.69;5128678;28;20047;-71
2024/01/30 07:17:46;;;;;;;18.48;13.55;;;;;;;0.38;75.34;100998.53;5129157;28;20070;-70
2024/01/30 07:20:13;;;;;;;18.80;14.95;;;;;;;0.40;75.04;100999.41;5129004;28;20100;-71
2024/01/30 07:22:41;;;;;;;21.52;14.32;;;;;;;0.52;74.32;101005.66;5129470;28;20242;-70
2024/01/30 07:25:09;;;;;;;19.08;13.93;;;;;;;0.57;73.80;101006.59;5128662;28;20189;-70
2024/01/30 07:27:35;;;;;;;16.58;13.98;;;;;;;0.59;74.12;101011.81;5129220;28;20192;-71
2024/01/30 07:30:04;;;;;;;20.63;14.35;;;;;;;0.64;73.77;101010.13;5128944;28;20299;-70
2024/01/30 07:32:31;;;;;;;19.85;15.80;;;;;;;0.55;74.34;101013.53;5128460;28;20051;-70
2024/01/30 07:34:58;;;;;;;22.70;15.35;;;;;;;0.60;74.02;101004.00;5128464;28;20074;-71
2024/01/30 07:37:25;;;;;;;18.92;14.68;;;;;;;0.68;73.71;101008.44;5128480;28;20327;-71
2024/01/30 07:39:51;;;;;;;22.95;15.77;;;;;;;0.53;74.94;101006.53;5128779;28;20039;-71
2024/01/30 07:42:18;;;;;;;22.17;15.25;;;;;;;0.61;74.41;100992.72;5128660;28;20054;-70
2024/01/30 07:44:45;;;;;;;23.15;16.27;;;;;;;0.68;74.82;100996.28;5128172;28;20054;-71
2024/01/30 07:47:13;;;;;;;19.67;15.05;;;;;;;0.77;74.76;100998.09;5128516;28;20057;-71
2024/01/30 07:49:40;;;;;;;21.10;14.10;;;;;;;0.85;74.46;100994.72;5127446;28;20067;-70
2024/01/30 07:52:07;;;;;;;21.60;14.90;;;;;;;0.34;74.59;100932.41;5128476;28;20234;-71
2024/01/30 07:54:34;;;;;;;21.30;16.00;;;;;;;1.00;74.00;100996.59;5128289;28;20043;-71
2024/01/30 07:57:01;;;;;;;22.23;14.38;;;;;;;1.16;73.74;101000.22;5128290;28;20342;-70
2024/01/30 07:59:28;;;;;;;19.42;15.00;;;;;;;1.31;73.51;101002.97;5128093;28;20051;-70
2024/01/30 08:01:55;;;;;;;21.45;14.15;;;;;;;1.38;73.02;101010.00;5127900;28;20203;-71
2024/01/30 08:04:23;;;;;;;21.83;14.57;;;;;;;1.45;72.37;101003.97;5126835;28;20284;-71
2024/01/30 08:06:49;;;;;;;21.67;15.73;;;;;;;1.53;71.90;101011.88;5127919;28;20113;-71
2024/01/30 08:09:16;;;;;;;19.63;14.40;;;;;;;1.62;71.53;101011.97;5127412;28;20040;-71
2024/01/30 08:11:43;;;;;;;23.33;15.43;;;;;;;1.77;71.10;101009.47;5127705;28;20039;-70
2024/01/30 08:14:09;;;;;;;21.73;15.00;;;;;;;1.95;70.95;101007.84;5128024;28;20195;-71
2024/01/30 08:16:36;;;;;;;19.38;14.55;;;;;;;1.68;70.00;100977.16;5127855;28;20043;-71
2024/01/30 08:19:02;;;;;;;19.95;14.40;;;;;;;2.03;69.95;101013.97;5128132;28;20288;-70
2024/01/30 08:21:35;;;;;;;18.90;13.88;;;;;;;2.16;69.30;101013.19;5127745;28;20051;-70
2024/01/30 08:24:03;;;;;;;22.10;14.40;;;;;;;2.27;68.96;101010.63;5127976;28;20044;-70
2024/01/30 08:26:29;;;;;;;18.00;14.95;;;;;;;2.29;68.31;101014.13;5126907;28;20055;-71
2024/01/30 08:28:56;;;;;;;19.02;13.63;;;;;;;2.34;68.40;101018.50;5127301;28;20241;-71
2024/01/30 08:31:22;;;;;;;20.70;14.23;;;;;;;2.37;67.64;101017.66;5127312;28;20051;-70
2024/01/30 08:33:49;;;;;;;24.45;15.52;;;;;;;2.55;67.54;101005.50;5127500;28;20116;-71
2024/01/30 08:36:16;;;;;;;19.95;13.27;;;;;;;2.79;66.79;101007.34;5127818;28;20044;-71
2024/01/30 08:38:44;;;;;;;22.15;16.08;;;;;;;2.95;66.34;101004.75;5127772;28;20314;-71
2024/01/30 08:41:11;;;;;;;17.45;13.57;;;;;;;2.92;64.95;101004.75;5127454;28;20105;-71
2024/01/30 08:43:37;;;;;;;18.70;13.95;;;;;;;2.67;65.18;100975.88;5127293;28;20040;-70
2024/01/30 08:46:04;;;;;;;20.33;15.30;;;;;;;3.01;64.61;101007.38;5126206;28;20039;-70
2024/01/30 08:48:31;;;;;;;19.75;13.23;;;;;;;2.98;64.63;101004.75;5127071;28;20104;-70
2024/01/30 08:50:58;;;;;;;21.02;12.82;;;;;;;2.93;63.84;100964.59;5127757;28;20039;-70
2024/01/30 08:53:25;;;;;;;18.27;13.82;;;;;;;3.09;63.44;101001.28;5127113;28;20111;-70
2024/01/30 08:55:53;;;;;;;20.67;14.18;;;;;;;3.18;62.98;101000.41;5126941;28;20039;-70
2024/01/30 08:58:20;;;;;;;18.15;13.05;;;;;;;3.33;63.07;100991.69;5127178;28;20043;-70
2024/01/30 09:00:46;;;;;;;18.38;13.77;;;;;;;3.38;63.16;100993.44;5127304;28;20284;-70
2024/01/30 09:03:13;;;;;;;17.30;12.88;;;;;;;3.38;62.61;101000.44;5127013;28;20250;-70
2024/01/30 09:05:40;;;;;;;18.52;13.43;;;;;;;3.44;63.03;101003.06;5126572;28;20039;-70
2024/01/30 09:08:07;;;;;;;16.08;14.00;;;;;;;3.49;61.84;100993.44;5126173;28;20316;-70
2024/01/30 09:10:33;;;;;;;16.17;13.10;;;;;;;3.51;61.81;100989.94;5125746;28;20246;-70
2024/01/30 09:13:01;;;;;;;17.92;13.40;;;;;;;3.58;61.19;100998.69;5126863;28;20043;-70
2024/01/30 09:15:28;;;;;;;19.40;15.13;;;;;;;3.78;60.96;101004.78;5126858;28;20040;-70
2024/01/30 09:17:54;;;;;;;18.60;13.30;;;;;;;3.79;60.27;100993.41;5126513;28;20048;-70
2024/01/30 09:20:22;;;;;;;17.30;13.80;;;;;;;3.98;60.33;101004.75;5126951;28;20054;-70
2024/01/30 09:22:49;;;;;;;16.63;13.82;;;;;;;4.05;60.53;101001.22;5126730;28;20055;-70
2024/01/30 09:25:15;;;;;;;16.60;13.00;;;;;;;4.17;60.41;100998.56;5126710;28;20077;-69
2024/01/30 09:27:42;;;;;;;18.95;13.60;;;;;;;4.27;59.97;101003.81;5126686;28;20054;-70
2024/01/30 09:30:11;;;;;;;17.30;13.80;;;;;;;4.36;59.15;101014.28;5126832;28;20093;-70
2024/01/30 09:32:37;;;;;;;17.30;13.88;;;;;;;4.38;58.11;101002.91;5126299;28;20259;-70
2024/01/30 09:35:05;;;;;;;16.30;12.95;;;;;;;4.56;58.73;101001.09;5126176;28;20081;-70
2024/01/30 09:37:33;;;;;;;17.85;14.07;;;;;;;4.73;58.42;100994.88;5126342;28;20067;-71
2024/01/30 09:39:59;;;;;;;20.95;13.18;;;;;;;4.73;57.30;100994.88;5126360;28;20051;-70
2024/01/30 09:42:32;;;;;;;17.85;13.13;;;;;;;4.84;57.08;100996.56;5125598;28;20055;-70
2024/01/30 09:44:58;;;;;;;17.13;12.98;;;;;;;5.13;56.01;100987.63;5125229;28;20078;-70
2024/01/30 09:47:27;;;;;;;16.40;13.38;;;;;;;5.41;56.64;100988.31;5126926;28;20100;-70
2024/01/30 09:49:54;;;;;;;18.20;14.07;;;;;;;5.81;55.98;100984.44;5126315;28;20271;-70
2024/01/30 09:52:20;;;;;;;18.52;13.15;;;;;;;5.52;55.11;100950.53;5126202;28;20050;-70
2024/01/30 09:54:50;;;;;;;17.67;13.32;;;;;;;5.78;54.63;100982.72;5126276;28;20200;-70
2024/01/30 09:57:17;;;;;;;14.75;12.90;;;;;;;4.93;53.97;100802.13;5126228;28;20054;-70
2024/01/30 09:59:43;;;;;;;15.15;12.55;;;;;;;6.05;55.56;100979.78;5125862;28;20281;-70
2024/01/30 10:02:11;;;;;;;16.98;13.50;;;;;;;5.99;53.71;100982.50;5125794;28;20118;-70
2024/01/30 10:04:39;;;;;;;16.77;12.80;;;;;;;6.22;53.79;100976.09;5126040;28;20043;-70
2024/01/30 10:07:06;;;;;;;14.73;12.27;;;;;;;6.31;53.32;100982.13;5125771;28;20059;-71
2024/01/30 10:09:34;;;;;;;15.55;12.40;;;;;;;6.40;53.05;100976.75;5124980;28;20080;-71
2024/01/30 10:12:03;;;;;;;17.48;13.75;;;;;;;6.65;54.01;100974.66;5126000;28;20291;-70
2024/01/30 10:14:30;;;;;;;17.25;13.88;;;;;;;6.71;52.89;100966.69;5125786;28;20300;-71
2024/01/30 10:16:58;;;;;;;18.10;13.88;;;;;;;6.66;52.59;100973.78;5125802;28;20051;-71
2024/01/30 10:19:24;;;;;;;15.55;13.18;;;;;;;7.04;52.50;100969.75;5126101;28;20043;-71
2024/01/30 10:21:53;;;;;;;16.95;12.82;;;;;;;7.11;52.06;100968.78;5125944;28;20055;-71
2024/01/30 10:24:19;;;;;;;18.35;12.57;;;;;;;7.03;51.89;100929.34;5125937;28;20082;-71
2024/01/30 10:26:46;;;;;;;16.98;12.63;;;;;;;7.22;51.62;100969.47;5126326;28;20186;-70
2024/01/30 10:29:13;;;;;;;16.92;13.60;;;;;;;7.22;51.26;100969.47;5125889;28;20043;-71
2024/01/30 10:31:39;;;;;;;17.33;12.65;;;;;;;7.15;51.48;100938.81;5125572;28;20059;-71
2024/01/30 10:34:06;;;;;;;16.70;13.40;;;;;;;7.50;50.72;100953.22;5125697;28;20043;-71
2024/01/30 10:36:40;;;;;;;17.17;12.77;;;;;;;7.44;50.81;100948.06;5125643;28;20076;-71
2024/01/30 10:39:10;;;;;;;16.80;12.45;;;;;;;7.45;50.76;100947.16;5125468;28;20311;-70
2024/01/30 10:41:45;;;;;;;15.57;12.82;;;;;;;7.43;51.34;100949.81;5125589;28;20043;-70
2024/01/30 10:44:12;;;;;;;;;;;;;;;7.41;51.53;100940.19;5126036;28;20089;-70
2024/01/30 10:46:39;;;;;;;17.85;12.80;;;;;;;7.52;50.32;100940.88;5124647;28;19915;-71
2024/01/30 10:49:06;;;;;;;18.25;11.88;;;;;;;7.77;50.04;100933.38;5126022;28;20084;-70
2024/01/30 10:51:35;;;;;;;17.73;13.77;;;;;;;6.61;49.55;100759.59;5129707;28;20062;-71
2024/01/30 10:54:03;;;;;;;16.23;12.73;;;;;;;7.71;49.90;100934.38;5129384;28;20039;-71
2024/01/30 10:56:33;;;;;;;19.42;13.98;;;;;;;7.88;49.90;100926.13;5129384;28;20036;-71
2024/01/30 10:59:01;;;;;;;15.52;12.38;;;;;;;8.05;49.73;100923.16;5129108;28;20066;-71
2024/01/30 11:01:29;;;;;;;18.58;13.65;;;;;;;8.14;49.39;100930.91;5129230;28;20043;-71
2024/01/30 11:03:56;;;;;;;16.30;12.85;;;;;;;8.30;48.73;100919.13;5129327;28;20308;-71
2024/01/30 11:06:23;;;;;;;16.58;13.40;;;;;;;8.07;49.07;100916.09;5128848;28;20078;-71
2024/01/30 11:09:02;;;;;;;15.98;11.90;;;;;;;8.18;48.63;100919.38;5127771;28;20257;-71
2024/01/30 11:11:29;;;;;;;18.02;13.00;;;;;;;8.37;49.34;100912.81;5129243;28;20052;-71
2024/01/30 11:14:02;;;;;;;18.25;12.50;;;;;;;7.95;48.37;100852.06;5128923;28;20043;-71
2024/01/30 11:16:33;;;;;;;15.55;11.98;;;;;;;8.38;48.82;100911.03;5129041;28;20059;-71